Terminal Aerodrome Forecast
Issued by NWS

Home | Current Version | Previous Version | Graphics & Text | Print | Product List | Glossary On
Versions: 1 2 3 4 5 6 7 8 9 10 11 12 13 14 15
000
FTUS43 KMPX 200707 RRA
TAFRWF
TAF
KRWF 200707Z 2007/2106 20008KT P6SM SCT250
     FM201700 21012KT P6SM BKN200
     FM202300 24011KT P6SM BKN250
     FM210400 27012KT P6SM SCT200=

USA.gov is the U.S. government's official web portal to all federal, state and local government web resources and services.